sensor_id;sensor_type;location;lat;lon;timestamp;pressure;altitude;pressure_sealevel;temperature;humidity
79707;BME280;69200;53.612;-2.416;2023-04-23T00:00:23;98433.16;;;7.88;71.81
79707;BME280;69200;53.612;-2.416;2023-04-23T00:02:51;98426.47;;;7.96;71.73
79707;BME280;69200;53.612;-2.416;2023-04-23T00:05:18;98428.91;;;7.97;72.07
79707;BME280;69200;53.612;-2.416;2023-04-23T00:07:44;98416.06;;;7.77;72.82
79707;BME280;69200;53.612;-2.416;2023-04-23T00:10:10;98415.28;;;7.82;72.09
79707;BME280;69200;53.612;-2.416;2023-04-23T00:12:36;98415.34;;;7.87;71.68
79707;BME280;69200;53.612;-2.416;2023-04-23T00:15:03;98422.09;;;7.90;72.63
79707;BME280;69200;53.612;-2.416;2023-04-23T00:17:28;98422.38;;;7.88;72.58
79707;BME280;69200;53.612;-2.416;2023-04-23T00:19:54;98414.25;;;7.88;72.58
79707;BME280;69200;53.612;-2.416;2023-04-23T00:22:19;98418.16;;;8.02;71.92
79707;BME280;69200;53.612;-2.416;2023-04-23T00:24:46;98412.63;;;8.24;71.33
79707;BME280;69200;53.612;-2.416;2023-04-23T00:27:11;98409.59;;;8.16;71.13
79707;BME280;69200;53.612;-2.416;2023-04-23T00:29:37;98413.91;;;8.11;72.11
79707;BME280;69200;53.612;-2.416;2023-04-23T00:32:02;98411.31;;;8.32;71.40
79707;BME280;69200;53.612;-2.416;2023-04-23T00:34:28;98399.88;;;8.14;71.96
79707;BME280;69200;53.612;-2.416;2023-04-23T00:36:53;98402.94;;;7.91;72.56
79707;BME280;69200;53.612;-2.416;2023-04-23T00:39:19;98398.91;;;7.94;72.09
79707;BME280;69200;53.612;-2.416;2023-04-23T00:41:44;98406.97;;;7.89;72.56
79707;BME280;69200;53.612;-2.416;2023-04-23T00:44:10;98406.28;;;8.08;72.27
79707;BME280;69200;53.612;-2.416;2023-04-23T00:46:36;98388.94;;;7.99;72.21
79707;BME280;69200;53.612;-2.416;2023-04-23T00:49:02;98391.72;;;8.09;71.73
79707;BME280;69200;53.612;-2.416;2023-04-23T00:51:28;98394.91;;;8.01;72.14
79707;BME280;69200;53.612;-2.416;2023-04-23T00:53:54;98393.38;;;8.16;72.37
79707;BME280;69200;53.612;-2.416;2023-04-23T00:56:21;98390.22;;;8.29;71.68
79707;BME280;69200;53.612;-2.416;2023-04-23T00:58:48;98384.34;;;8.37;70.70
79707;BME280;69200;53.612;-2.416;2023-04-23T01:01:13;98389.88;;;8.15;71.41
79707;BME280;69200;53.612;-2.416;2023-04-23T01:03:39;98381.44;;;8.06;71.91
79707;BME280;69200;53.612;-2.416;2023-04-23T01:06:06;98383.53;;;7.94;71.96
79707;BME280;69200;53.612;-2.416;2023-04-23T01:08:33;98383.84;;;8.03;72.02
79707;BME280;69200;53.612;-2.416;2023-04-23T01:10:59;98375.50;;;8.04;71.95
79707;BME280;69200;53.612;-2.416;2023-04-23T01:13:24;98374.97;;;8.07;72.49
79707;BME280;69200;53.612;-2.416;2023-04-23T01:15:54;98381.59;;;7.90;73.10
79707;BME280;69200;53.612;-2.416;2023-04-23T01:18:20;98364.88;;;7.93;72.94
79707;BME280;69200;53.612;-2.416;2023-04-23T01:20:45;98361.00;;;8.21;72.44
79707;BME280;69200;53.612;-2.416;2023-04-23T01:23:11;98358.75;;;8.02;72.46
79707;BME280;69200;53.612;-2.416;2023-04-23T01:25:37;98357.06;;;7.96;73.31
79707;BME280;69200;53.612;-2.416;2023-04-23T01:28:04;98366.16;;;7.85;73.83
79707;BME280;69200;53.612;-2.416;2023-04-23T01:30:30;98350.53;;;7.92;73.93
79707;BME280;69200;53.612;-2.416;2023-04-23T01:32:56;98352.75;;;8.00;73.08
79707;BME280;69200;53.612;-2.416;2023-04-23T01:35:22;98352.69;;;7.90;73.60
79707;BME280;69200;53.612;-2.416;2023-04-23T01:37:48;98356.00;;;7.97;73.23
79707;BME280;69200;53.612;-2.416;2023-04-23T01:40:16;98346.03;;;8.03;73.64
79707;BME280;69200;53.612;-2.416;2023-04-23T01:42:41;98344.91;;;7.99;73.67
79707;BME280;69200;53.612;-2.416;2023-04-23T01:45:07;98339.97;;;7.85;73.69
79707;BME280;69200;53.612;-2.416;2023-04-23T01:47:34;98346.44;;;7.84;73.93
79707;BME280;69200;53.612;-2.416;2023-04-23T01:50:00;98344.44;;;8.07;73.35
79707;BME280;69200;53.612;-2.416;2023-04-23T01:52:25;98350.78;;;8.28;72.80
79707;BME280;69200;53.612;-2.416;2023-04-23T01:54:51;98338.97;;;8.39;72.22
79707;BME280;69200;53.612;-2.416;2023-04-23T01:57:17;98347.53;;;8.31;72.95
79707;BME280;69200;53.612;-2.416;2023-04-23T01:59:48;98338.47;;;8.52;71.91
79707;BME280;69200;53.612;-2.416;2023-04-23T02:02:14;98331.13;;;8.37;72.32
79707;BME280;69200;53.612;-2.416;2023-04-23T02:04:43;98324.03;;;8.26;72.83
79707;BME280;69200;53.612;-2.416;2023-04-23T02:07:09;98326.22;;;8.34;72.27
79707;BME280;69200;53.612;-2.416;2023-04-23T02:09:34;98319.78;;;8.40;72.13
79707;BME280;69200;53.612;-2.416;2023-04-23T02:12:00;98332.53;;;8.50;71.84
79707;BME280;69200;53.612;-2.416;2023-04-23T02:14:26;98323.22;;;8.31;72.26
79707;BME280;69200;53.612;-2.416;2023-04-23T02:16:51;98325.38;;;8.34;72.52
79707;BME280;69200;53.612;-2.416;2023-04-23T02:19:16;98318.41;;;8.38;71.54
79707;BME280;69200;53.612;-2.416;2023-04-23T02:21:42;98319.13;;;8.23;72.49
79707;BME280;69200;53.612;-2.416;2023-04-23T02:24:07;98321.81;;;8.18;72.75
79707;BME280;69200;53.612;-2.416;2023-04-23T02:26:33;98313.94;;;8.11;72.92
79707;BME280;69200;53.612;-2.416;2023-04-23T02:28:58;98316.69;;;8.22;72.43
79707;BME280;69200;53.612;-2.416;2023-04-23T02:31:24;98312.31;;;8.16;72.72
79707;BME280;69200;53.612;-2.416;2023-04-23T02:33:49;98318.97;;;8.35;72.59
79707;BME280;69200;53.612;-2.416;2023-04-23T02:36:15;98305.34;;;8.25;72.34
79707;BME280;69200;53.612;-2.416;2023-04-23T02:38:41;98311.94;;;8.39;72.15
79707;BME280;69200;53.612;-2.416;2023-04-23T02:41:08;98314.22;;;8.15;72.55
79707;BME280;69200;53.612;-2.416;2023-04-23T02:43:34;98315.53;;;8.07;73.17
79707;BME280;69200;53.612;-2.416;2023-04-23T02:45:59;98315.75;;;7.96;73.12
79707;BME280;69200;53.612;-2.416;2023-04-23T02:48:33;98318.94;;;7.93;73.92
79707;BME280;69200;53.612;-2.416;2023-04-23T02:50:58;98309.53;;;8.00;72.98
79707;BME280;69200;53.612;-2.416;2023-04-23T02:53:24;98316.56;;;8.01;73.12
79707;BME280;69200;53.612;-2.416;2023-04-23T02:55:49;98309.50;;;7.90;74.04
79707;BME280;69200;53.612;-2.416;2023-04-23T02:58:15;98316.28;;;7.98;73.40
79707;BME280;69200;53.612;-2.416;2023-04-23T03:00:40;98302.09;;;7.75;73.78
79707;BME280;69200;53.612;-2.416;2023-04-23T03:03:06;98307.50;;;7.75;74.17
79707;BME280;69200;53.612;-2.416;2023-04-23T03:05:31;98308.91;;;7.83;73.01
79707;BME280;69200;53.612;-2.416;2023-04-23T03:07:56;98303.56;;;7.93;73.29
79707;BME280;69200;53.612;-2.416;2023-04-23T03:10:21;98307.97;;;8.09;72.67
79707;BME280;69200;53.612;-2.416;2023-04-23T03:12:47;98306.66;;;8.12;72.61
79707;BME280;69200;53.612;-2.416;2023-04-23T03:15:12;98307.22;;;8.19;72.32
79707;BME280;69200;53.612;-2.416;2023-04-23T03:17:38;98306.91;;;8.10;72.46
79707;BME280;69200;53.612;-2.416;2023-04-23T03:20:03;98302.56;;;8.09;72.61
79707;BME280;69200;53.612;-2.416;2023-04-23T03:22:29;98301.13;;;7.92;73.63
79707;BME280;69200;53.612;-2.416;2023-04-23T03:24:55;98304.19;;;8.05;72.35
79707;BME280;69200;53.612;-2.416;2023-04-23T03:27:20;98309.78;;;7.94;73.76
79707;BME280;69200;53.612;-2.416;2023-04-23T03:29:45;98313.81;;;7.86;73.56
79707;BME280;69200;53.612;-2.416;2023-04-23T03:32:11;98303.50;;;7.83;73.66
79707;BME280;69200;53.612;-2.416;2023-04-23T03:34:36;98312.16;;;7.85;73.79
79707;BME280;69200;53.612;-2.416;2023-04-23T03:37:01;98305.13;;;7.84;75.04
79707;BME280;69200;53.612;-2.416;2023-04-23T03:39:27;98318.03;;;7.77;74.06
79707;BME280;69200;53.612;-2.416;2023-04-23T03:41:52;98305.06;;;7.74;73.89
79707;BME280;69200;53.612;-2.416;2023-04-23T03:44:17;98300.94;;;8.08;72.88
79707;BME280;69200;53.612;-2.416;2023-04-23T03:46:43;98297.75;;;8.11;72.19
79707;BME280;69200;53.612;-2.416;2023-04-23T03:49:08;98289.78;;;7.90;73.16
79707;BME280;69200;53.612;-2.416;2023-04-23T03:51:33;98295.38;;;7.78;74.15
79707;BME280;69200;53.612;-2.416;2023-04-23T03:54:00;98294.59;;;7.82;73.74
79707;BME280;69200;53.612;-2.416;2023-04-23T03:56:25;98288.59;;;7.75;73.87
79707;BME280;69200;53.612;-2.416;2023-04-23T03:58:51;98289.63;;;7.64;74.51
79707;BME280;69200;53.612;-2.416;2023-04-23T04:01:16;98281.78;;;7.63;74.67
79707;BME280;69200;53.612;-2.416;2023-04-23T04:03:42;98294.69;;;7.55;75.17
79707;BME280;69200;53.612;-2.416;2023-04-23T04:06:07;98287.75;;;7.65;74.99
79707;BME280;69200;53.612;-2.416;2023-04-23T04:08:33;98294.06;;;7.85;74.14
79707;BME280;69200;53.612;-2.416;2023-04-23T04:10:58;98295.41;;;7.83;74.29
79707;BME280;69200;53.612;-2.416;2023-04-23T04:13:24;98288.13;;;7.83;73.70
79707;BME280;69200;53.612;-2.416;2023-04-23T04:15:49;98292.25;;;8.01;73.42
79707;BME280;69200;53.612;-2.416;2023-04-23T04:18:14;98294.69;;;7.98;72.73
79707;BME280;69200;53.612;-2.416;2023-04-23T04:20:40;98290.63;;;8.00;72.16
79707;BME280;69200;53.612;-2.416;2023-04-23T04:23:08;98284.91;;;7.92;72.66
79707;BME280;69200;53.612;-2.416;2023-04-23T04:25:33;98285.72;;;7.92;73.43
79707;BME280;69200;53.612;-2.416;2023-04-23T04:28:04;98277.84;;;7.80;73.55
79707;BME280;69200;53.612;-2.416;2023-04-23T04:30:29;98293.25;;;7.80;73.69
79707;BME280;69200;53.612;-2.416;2023-04-23T04:32:54;98283.97;;;7.66;73.45
79707;BME280;69200;53.612;-2.416;2023-04-23T04:35:20;98289.78;;;7.47;74.50
79707;BME280;69200;53.612;-2.416;2023-04-23T04:37:45;98294.59;;;7.40;74.48
79707;BME280;69200;53.612;-2.416;2023-04-23T04:40:11;98292.97;;;7.39;75.14
79707;BME280;69200;53.612;-2.416;2023-04-23T04:42:36;98291.63;;;7.42;75.34
79707;BME280;69200;53.612;-2.416;2023-04-23T04:45:04;98275.16;;;7.43;75.39
79707;BME280;69200;53.612;-2.416;2023-04-23T04:47:30;98285.41;;;7.41;75.71
79707;BME280;69200;53.612;-2.416;2023-04-23T04:49:56;98283.53;;;7.42;76.30
79707;BME280;69200;53.612;-2.416;2023-04-23T04:52:22;98277.25;;;7.36;76.45
79707;BME280;69200;53.612;-2.416;2023-04-23T04:54:48;98275.22;;;7.48;76.10
79707;BME280;69200;53.612;-2.416;2023-04-23T04:57:13;98284.81;;;7.34;76.55
79707;BME280;69200;53.612;-2.416;2023-04-23T04:59:39;98281.69;;;7.47;76.00
79707;BME280;69200;53.612;-2.416;2023-04-23T05:02:05;98276.44;;;7.36;76.47
79707;BME280;69200;53.612;-2.416;2023-04-23T05:04:30;98286.16;;;7.37;76.31
79707;BME280;69200;53.612;-2.416;2023-04-23T05:06:56;98284.88;;;7.44;75.67
79707;BME280;69200;53.612;-2.416;2023-04-23T05:09:21;98276.28;;;7.47;74.90
79707;BME280;69200;53.612;-2.416;2023-04-23T05:11:47;98293.09;;;7.60;74.53
79707;BME280;69200;53.612;-2.416;2023-04-23T05:14:12;98282.19;;;7.44;74.71
79707;BME280;69200;53.612;-2.416;2023-04-23T05:16:38;98275.50;;;7.52;75.11
79707;BME280;69200;53.612;-2.416;2023-04-23T05:19:03;98288.22;;;7.56;73.94
79707;BME280;69200;53.612;-2.416;2023-04-23T05:21:29;98286.38;;;7.62;74.09
79707;BME280;69200;53.612;-2.416;2023-04-23T05:23:55;98291.63;;;7.79;73.60
79707;BME280;69200;53.612;-2.416;2023-04-23T05:26:21;98277.50;;;7.67;72.95
79707;BME280;69200;53.612;-2.416;2023-04-23T05:28:46;98289.59;;;7.59;72.85
79707;BME280;69200;53.612;-2.416;2023-04-23T05:31:11;98290.69;;;7.63;73.06
79707;BME280;69200;53.612;-2.416;2023-04-23T05:33:37;98289.31;;;7.61;72.85
79707;BME280;69200;53.612;-2.416;2023-04-23T05:36:03;98287.69;;;7.60;73.06
79707;BME280;69200;53.612;-2.416;2023-04-23T05:38:28;98293.78;;;7.82;72.65
79707;BME280;69200;53.612;-2.416;2023-04-23T05:40:54;98290.44;;;7.65;72.75
79707;BME280;69200;53.612;-2.416;2023-04-23T05:43:19;98280.19;;;7.67;72.36
79707;BME280;69200;53.612;-2.416;2023-04-23T05:45:44;98293.72;;;7.72;72.21
79707;BME280;69200;53.612;-2.416;2023-04-23T05:48:10;98288.13;;;7.83;71.63
79707;BME280;69200;53.612;-2.416;2023-04-23T05:50:35;98295.03;;;7.69;73.01
79707;BME280;69200;53.612;-2.416;2023-04-23T05:53:01;98290.28;;;7.81;72.08
79707;BME280;69200;53.612;-2.416;2023-04-23T05:55:26;98304.91;;;7.91;72.40
79707;BME280;69200;53.612;-2.416;2023-04-23T05:57:51;98299.94;;;7.77;72.22
79707;BME280;69200;53.612;-2.416;2023-04-23T06:00:17;98293.72;;;7.72;72.90
79707;BME280;69200;53.612;-2.416;2023-04-23T06:02:43;98304.53;;;7.72;72.87
79707;BME280;69200;53.612;-2.416;2023-04-23T06:05:08;98306.31;;;7.61;73.60
79707;BME280;69200;53.612;-2.416;2023-04-23T06:07:34;98295.84;;;7.65;73.24
79707;BME280;69200;53.612;-2.416;2023-04-23T06:10:02;98300.84;;;7.51;74.52
79707;BME280;69200;53.612;-2.416;2023-04-23T06:12:29;98288.38;;;7.40;74.46
79707;BME280;69200;53.612;-2.416;2023-04-23T06:14:54;98310.25;;;7.43;75.13
79707;BME280;69200;53.612;-2.416;2023-04-23T06:17:19;98299.63;;;7.64;74.17
79707;BME280;69200;53.612;-2.416;2023-04-23T06:19:45;98306.16;;;7.78;73.98
79707;BME280;69200;53.612;-2.416;2023-04-23T06:22:10;98299.63;;;7.69;nan
79707;BME280;69200;53.612;-2.416;2023-04-23T06:24:36;98271.75;;;7.58;74.22
79707;BME280;69200;53.612;-2.416;2023-04-23T06:27:01;98296.38;;;7.67;74.22
79707;BME280;69200;53.612;-2.416;2023-04-23T06:29:27;98303.94;;;7.70;74.29
79707;BME280;69200;53.612;-2.416;2023-04-23T06:31:56;98303.94;;;7.70;74.46
79707;BME280;69200;53.612;-2.416;2023-04-23T06:34:25;98299.63;;;7.69;75.13
79707;BME280;69200;53.612;-2.416;2023-04-23T06:36:50;98295.03;;;7.64;74.68
79707;BME280;69200;53.612;-2.416;2023-04-23T06:39:16;98296.97;;;7.74;74.37
79707;BME280;69200;53.612;-2.416;2023-04-23T06:41:41;98305.88;;;7.74;74.45
79707;BME280;69200;53.612;-2.416;2023-04-23T06:44:07;98308.41;;;7.91;74.21
79707;BME280;69200;53.612;-2.416;2023-04-23T06:46:32;98295.94;;;7.80;74.23
79707;BME280;69200;53.612;-2.416;2023-04-23T06:48:58;98300.25;;;7.81;74.73
79707;BME280;69200;53.612;-2.416;2023-04-23T06:51:26;98309.50;;;7.90;74.97
79707;BME280;69200;53.612;-2.416;2023-04-23T06:53:52;98316.50;;;7.91;74.69
79707;BME280;69200;53.612;-2.416;2023-04-23T06:56:17;98310.84;;;7.93;75.13
79707;BME280;69200;53.612;-2.416;2023-04-23T06:58:43;98315.94;;;7.84;75.15
79707;BME280;69200;53.612;-2.416;2023-04-23T07:01:08;98314.84;;;7.85;75.05
79707;BME280;69200;53.612;-2.416;2023-04-23T07:03:35;98321.34;;;7.84;75.56
79707;BME280;69200;53.612;-2.416;2023-04-23T07:06:01;98318.09;;;7.82;75.88
79707;BME280;69200;53.612;-2.416;2023-04-23T07:08:26;98321.81;;;7.76;75.50
79707;BME280;69200;53.612;-2.416;2023-04-23T07:10:52;98316.13;;;7.72;76.50
79707;BME280;69200;53.612;-2.416;2023-04-23T07:13:17;98311.56;;;7.73;76.20
79707;BME280;69200;53.612;-2.416;2023-04-23T07:15:43;98325.00;;;7.68;76.35
79707;BME280;69200;53.612;-2.416;2023-04-23T07:18:08;98324.50;;;7.76;76.11
79707;BME280;69200;53.612;-2.416;2023-04-23T07:20:34;98313.72;;;7.76;75.92
79707;BME280;69200;53.612;-2.416;2023-04-23T07:23:01;98325.84;;;7.73;75.73
79707;BME280;69200;53.612;-2.416;2023-04-23T07:25:29;98307.78;;;7.74;75.82
79707;BME280;69200;53.612;-2.416;2023-04-23T07:27:55;98326.38;;;7.70;76.14
79707;BME280;69200;53.612;-2.416;2023-04-23T07:30:22;98326.13;;;7.77;75.97
79707;BME280;69200;53.612;-2.416;2023-04-23T07:32:48;98307.91;;;7.99;75.47
79707;BME280;69200;53.612;-2.416;2023-04-23T07:35:13;98321.47;;;8.09;75.25
79707;BME280;69200;53.612;-2.416;2023-04-23T07:37:39;98320.84;;;7.92;75.13
79707;BME280;69200;53.612;-2.416;2023-04-23T07:40:05;98321.97;;;8.01;75.08
79707;BME280;69200;53.612;-2.416;2023-04-23T07:42:32;98308.22;;;8.03;75.01
79707;BME280;69200;53.612;-2.416;2023-04-23T07:44:57;98312.78;;;7.97;75.39
79707;BME280;69200;53.612;-2.416;2023-04-23T07:47:23;98319.03;;;8.03;74.97
79707;BME280;69200;53.612;-2.416;2023-04-23T07:49:48;98327.63;;;8.00;75.28
79707;BME280;69200;53.612;-2.416;2023-04-23T07:52:15;98318.19;;;7.97;75.09
79707;BME280;69200;53.612;-2.416;2023-04-23T07:54:41;98312.28;;;8.05;74.51
79707;BME280;69200;53.612;-2.416;2023-04-23T07:57:07;98315.34;;;8.24;74.53
79707;BME280;69200;53.612;-2.416;2023-04-23T07:59:32;98329.66;;;8.25;74.44
79707;BME280;69200;53.612;-2.416;2023-04-23T08:01:57;98321.94;;;8.38;74.12
79707;BME280;69200;53.612;-2.416;2023-04-23T08:04:23;98320.25;;;8.27;73.93
79707;BME280;69200;53.612;-2.416;2023-04-23T08:06:48;98319.34;;;8.17;74.12
79707;BME280;69200;53.612;-2.416;2023-04-23T08:09:13;98296.19;;;8.31;74.07
79707;BME280;69200;53.612;-2.416;2023-04-23T08:11:40;98326.63;;;8.58;73.65
79707;BME280;69200;53.612;-2.416;2023-04-23T08:14:05;98326.81;;;8.47;73.89
79707;BME280;69200;53.612;-2.416;2023-04-23T08:16:31;98332.78;;;8.44;74.20
79707;BME280;69200;53.612;-2.416;2023-04-23T08:18:56;98332.56;;;8.60;72.83
79707;BME280;69200;53.612;-2.416;2023-04-23T08:21:22;98335.28;;;8.71;73.13
79707;BME280;69200;53.612;-2.416;2023-04-23T08:23:49;98327.22;;;8.76;72.63
79707;BME280;69200;53.612;-2.416;2023-04-23T08:26:15;98341.84;;;8.95;72.55
79707;BME280;69200;53.612;-2.416;2023-04-23T08:28:40;98338.31;;;8.89;72.12
79707;BME280;69200;53.612;-2.416;2023-04-23T08:31:05;98345.38;;;8.90;72.27
79707;BME280;69200;53.612;-2.416;2023-04-23T08:33:31;98342.16;;;8.99;71.63
79707;BME280;69200;53.612;-2.416;2023-04-23T08:35:57;98332.06;;;8.79;71.66
79707;BME280;69200;53.612;-2.416;2023-04-23T08:38:22;98340.16;;;8.74;72.28
79707;BME280;69200;53.612;-2.416;2023-04-23T08:40:48;98317.91;;;8.46;71.66
79707;BME280;69200;53.612;-2.416;2023-04-23T08:43:18;98343.44;;;8.81;71.40
79707;BME280;69200;53.612;-2.416;2023-04-23T08:45:48;98349.75;;;9.07;70.48
79707;BME280;69200;53.612;-2.416;2023-04-23T08:48:14;98360.78;;;8.95;70.92
79707;BME280;69200;53.612;-2.416;2023-04-23T08:50:43;98361.84;;;8.89;71.39
79707;BME280;69200;53.612;-2.416;2023-04-23T08:53:09;98353.25;;;9.02;70.58
79707;BME280;69200;53.612;-2.416;2023-04-23T08:55:35;98358.66;;;9.02;70.72
79707;BME280;69200;53.612;-2.416;2023-04-23T08:58:01;98355.69;;;8.99;70.70
79707;BME280;69200;53.612;-2.416;2023-04-23T09:00:30;98358.91;;;8.90;71.21
79707;BME280;69200;53.612;-2.416;2023-04-23T09:02:57;98343.50;;;9.06;70.54
79707;BME280;69200;53.612;-2.416;2023-04-23T09:05:22;98345.94;;;9.03;70.63
79707;BME280;69200;53.612;-2.416;2023-04-23T09:07:48;98339.47;;;9.24;70.28
79707;BME280;69200;53.612;-2.416;2023-04-23T09:10:13;98352.75;;;9.31;70.44
79707;BME280;69200;53.612;-2.416;2023-04-23T09:12:41;98344.63;;;9.41;69.71
79707;BME280;69200;53.612;-2.416;2023-04-23T09:15:08;98365.22;;;9.57;69.09
79707;BME280;69200;53.612;-2.416;2023-04-23T09:17:38;98355.47;;;9.71;67.74
79707;BME280;69200;53.612;-2.416;2023-04-23T09:20:05;98353.31;;;9.73;68.08
79707;BME280;69200;53.612;-2.416;2023-04-23T09:25:05;98357.09;;;9.62;68.09
79707;BME280;69200;53.612;-2.416;2023-04-23T09:27:30;98355.19;;;9.73;68.07
79707;BME280;69200;53.612;-2.416;2023-04-23T09:29:56;98351.13;;;9.70;67.69
79707;BME280;69200;53.612;-2.416;2023-04-23T09:32:31;98352.75;;;9.61;67.92
79707;BME280;69200;53.612;-2.416;2023-04-23T09:35:02;98368.19;;;9.76;67.10
79707;BME280;69200;53.612;-2.416;2023-04-23T09:37:27;98364.66;;;9.70;68.08
79707;BME280;69200;53.612;-2.416;2023-04-23T09:39:53;98357.38;;;9.71;67.47
79707;BME280;69200;53.612;-2.416;2023-04-23T09:42:22;98356.53;;;9.70;67.55
79707;BME280;69200;53.612;-2.416;2023-04-23T09:45:04;98367.38;;;9.80;67.62
79707;BME280;69200;53.612;-2.416;2023-04-23T09:47:34;98356.00;;;9.68;66.28
79707;BME280;69200;53.612;-2.416;2023-04-23T09:50:02;98370.91;;;9.71;66.75
79707;BME280;69200;53.612;-2.416;2023-04-23T09:52:30;98361.44;;;9.73;66.66
79707;BME280;69200;53.612;-2.416;2023-04-23T09:54:57;98360.63;;;9.73;66.78
79707;BME280;69200;53.612;-2.416;2023-04-23T09:57:24;98371.72;;;9.66;67.41
79707;BME280;69200;53.612;-2.416;2023-04-23T09:59:50;98360.63;;;9.58;66.96
79707;BME280;69200;53.612;-2.416;2023-04-23T10:02:16;98364.94;;;9.23;67.31
79707;BME280;69200;53.612;-2.416;2023-04-23T10:04:42;98369.50;;;9.12;68.14
79707;BME280;69200;53.612;-2.416;2023-04-23T10:07:07;98375.19;;;9.21;68.12
79707;BME280;69200;53.612;-2.416;2023-04-23T10:09:37;98370.00;;;8.99;69.20
79707;BME280;69200;53.612;-2.416;2023-04-23T10:12:03;98374.88;;;8.92;68.66
79707;BME280;69200;53.612;-2.416;2023-04-23T10:14:30;98370.53;;;8.96;68.83
79707;BME280;69200;53.612;-2.416;2023-04-23T10:17:00;98364.56;;;8.89;68.67
79707;BME280;69200;53.612;-2.416;2023-04-23T10:19:26;98373.53;;;9.10;68.64
79707;BME280;69200;53.612;-2.416;2023-04-23T10:22:00;98374.69;;;9.34;68.13
79707;BME280;69200;53.612;-2.416;2023-04-23T10:24:31;98341.66;;;9.32;67.17
79707;BME280;69200;53.612;-2.416;2023-04-23T10:27:03;98364.69;;;9.40;67.32
79707;BME280;69200;53.612;-2.416;2023-04-23T10:29:31;98390.94;;;9.75;66.73
79707;BME280;69200;53.612;-2.416;2023-04-23T10:31:59;98388.78;;;9.92;65.77
79707;BME280;69200;53.612;-2.416;2023-04-23T10:34:26;98388.78;;;9.87;65.89
79707;BME280;69200;53.612;-2.416;2023-04-23T10:36:53;98378.97;;;10.17;64.45
79707;BME280;69200;53.612;-2.416;2023-04-23T10:39:20;98385.75;;;10.34;64.74
79707;BME280;69200;53.612;-2.416;2023-04-23T10:41:47;98386.28;;;10.42;64.31
79707;BME280;69200;53.612;-2.416;2023-04-23T10:44:13;98388.69;;;10.48;64.14
79707;BME280;69200;53.612;-2.416;2023-04-23T10:46:49;98394.94;;;10.54;64.32
79707;BME280;69200;53.612;-2.416;2023-04-23T10:49:16;98386.88;;;10.28;64.04
79707;BME280;69200;53.612;-2.416;2023-04-23T10:51:45;98393.06;;;10.34;64.41
79707;BME280;69200;53.612;-2.416;2023-04-23T10:54:15;98402.56;;;10.36;63.93
79707;BME280;69200;53.612;-2.416;2023-04-23T10:56:42;98396.09;;;10.27;64.08
79707;BME280;69200;53.612;-2.416;2023-04-23T10:59:20;98394.44;;;10.26;64.25
79707;BME280;69200;53.612;-2.416;2023-04-23T11:01:46;98415.00;;;10.53;64.14
79707;BME280;69200;53.612;-2.416;2023-04-23T11:04:26;98379.47;;;10.49;62.44
79707;BME280;69200;53.612;-2.416;2023-04-23T11:06:57;98410.06;;;10.70;61.77
79707;BME280;69200;53.612;-2.416;2023-04-23T11:09:31;98404.75;;;10.09;63.65
79707;BME280;69200;53.612;-2.416;2023-04-23T11:12:01;98400.31;;;10.64;63.59
79707;BME280;69200;53.612;-2.416;2023-04-23T11:14:34;98399.31;;;10.40;62.21
79707;BME280;69200;53.612;-2.416;2023-04-23T11:17:03;98401.16;;;10.54;61.31
79707;BME280;69200;53.612;-2.416;2023-04-23T11:19:34;98400.13;;;11.05;60.11
79707;BME280;69200;53.612;-2.416;2023-04-23T11:22:04;98389.78;;;11.17;59.19
79707;BME280;69200;53.612;-2.416;2023-04-23T11:24:35;98391.94;;;11.98;57.41
79707;BME280;69200;53.612;-2.416;2023-04-23T11:27:04;98400.44;;;12.21;55.27
79707;BME280;69200;53.612;-2.416;2023-04-23T11:29:30;98391.81;;;12.09;55.58
79707;BME280;69200;53.612;-2.416;2023-04-23T11:31:56;98383.06;;;12.41;55.48
79707;BME280;69200;53.612;-2.416;2023-04-23T11:34:22;98376.97;;;12.54;55.23
79707;BME280;69200;53.612;-2.416;2023-04-23T11:36:51;98381.63;;;12.48;54.46
79707;BME280;69200;53.612;-2.416;2023-04-23T11:39:17;98376.81;;;12.40;56.12
79707;BME280;69200;53.612;-2.416;2023-04-23T11:41:44;98390.84;;;12.76;54.97
79707;BME280;69200;53.612;-2.416;2023-04-23T11:44:11;98385.13;;;12.78;53.32
79707;BME280;69200;53.612;-2.416;2023-04-23T11:46:37;98385.91;;;13.02;53.61
79707;BME280;69200;53.612;-2.416;2023-04-23T11:49:02;98387.19;;;12.09;54.09
79707;BME280;69200;53.612;-2.416;2023-04-23T11:51:28;98385.06;;;12.06;54.30
79707;BME280;69200;53.612;-2.416;2023-04-23T11:53:54;98382.91;;;12.56;53.41
79707;BME280;69200;53.612;-2.416;2023-04-23T11:56:29;98384.03;;;13.22;52.61
79707;BME280;69200;53.612;-2.416;2023-04-23T11:58:59;98383.94;;;13.46;52.01
79707;BME280;69200;53.612;-2.416;2023-04-23T12:01:45;98392.75;;;13.19;52.19
79707;BME280;69200;53.612;-2.416;2023-04-23T12:04:13;98376.44;;;12.76;52.03
79707;BME280;69200;53.612;-2.416;2023-04-23T12:06:44;98395.25;;;12.48;53.60
79707;BME280;69200;53.612;-2.416;2023-04-23T12:09:11;98389.94;;;12.62;53.53
79707;BME280;69200;53.612;-2.416;2023-04-23T12:11:38;98391.53;;;12.63;54.18
79707;BME280;69200;53.612;-2.416;2023-04-23T12:14:03;98399.19;;;12.61;55.34
79707;BME280;69200;53.612;-2.416;2023-04-23T12:16:37;98407.53;;;12.17;55.38
79707;BME280;69200;53.612;-2.416;2023-04-23T12:19:03;98420.31;;;11.87;56.09
79707;BME280;69200;53.612;-2.416;2023-04-23T12:21:28;98411.66;;;11.80;55.33
79707;BME280;69200;53.612;-2.416;2023-04-23T12:23:55;98400.09;;;11.98;54.89
79707;BME280;69200;53.612;-2.416;2023-04-23T12:26:21;98390.44;;;11.82;55.16
79707;BME280;69200;53.612;-2.416;2023-04-23T12:28:53;98409.94;;;11.89;54.96
79707;BME280;69200;53.612;-2.416;2023-04-23T12:31:24;98406.00;;;12.06;54.97
79707;BME280;69200;53.612;-2.416;2023-04-23T12:34:03;98398.66;;;12.06;53.87
79707;BME280;69200;53.612;-2.416;2023-04-23T12:36:29;98410.72;;;12.24;53.62
79707;BME280;69200;53.612;-2.416;2023-04-23T12:41:43;98411.44;;;12.58;53.09
79707;BME280;69200;53.612;-2.416;2023-04-23T12:44:09;98417.00;;;12.48;53.95
79707;BME280;69200;53.612;-2.416;2023-04-23T12:46:35;98408.44;;;12.07;54.84
79707;BME280;69200;53.612;-2.416;2023-04-23T12:49:00;98411.81;;;11.94;55.52
79707;BME280;69200;53.612;-2.416;2023-04-23T12:51:25;98417.50;;;11.97;55.85
79707;BME280;69200;53.612;-2.416;2023-04-23T12:53:51;98418.13;;;11.84;55.79
79707;BME280;69200;53.612;-2.416;2023-04-23T12:56:16;98423.22;;;11.96;56.36
79707;BME280;69200;53.612;-2.416;2023-04-23T12:58:41;98413.78;;;11.78;56.55